首页
METAR-TAF:

METAR-TAF

机场 :

奥古斯塔, 喬治亞, 美国

纬度: 33-21-52N, 经度: 081-57-48W, 海拔: 44米

当前天气观测

该预报发布于35分钟前的13:53 UTC
风速3节,风向西转西南
温度 18°C
湿度 94%
气压 1011 hPa
能見度: 16.1公里
阴天层高于600英尺

METAR: KAGS 241353Z 24003KT 10SM OVC006 18/17 A2986 RMK AO2 CIG 005V010 SLP111 T01780167

时间: 10:28 (14:28 UTC)

预报

该预报发布于13分钟前的14:15 UTC
预报有效从24日的 14点(UTC)到 25日的 12点(UTC)
风速4节,风向南转西南
能見度: 10公里
阴天层高于1500英尺
从 24日的 1600点(UTC)
风速7节,风向西转西南
能見度: 10公里
散云层高于1000英尺
多云层高于2500英尺
从 24日的 1800点(UTC)
风速10节,风向西转西南,有时为15节阵风
能見度: 10公里
散云层高于2500英尺
多云层高于4000英尺
从 25日的 0100点(UTC)
风速10节,风向西
能見度: 10公里
多云层高于10000英尺

TAF: KAGS 241415Z 2414/2512 21004KT P6SM OVC015 FM241600 24007KT P6SM SCT010 BKN025 FM241800 25010G15KT P6SM SCT025 BKN040 FM250100 26010KT P6SM BKN100

超过4000个机场的气象观测和天气预报(METAR&TAF报告)。

可查询的气象台以黄色和红色小点在地图上表示。

将鼠标移到小点上方,可查看气象台名称。

然后点击查看天气观测和预报。

如需切换地图:点击带黑十字的绿色按钮放大地图;点击带横线的绿色按钮缩小地图;或者点击绿色箭头查看邻近地区的地图。


METAR-TAF: